createdAt,value
2019-03-09T00:00:21.247Z,75.00
2019-03-09T00:03:04.739Z,74.20
2019-03-09T00:05:51.670Z,73.50
2019-03-09T00:08:33.473Z,73.20
2019-03-09T00:11:13.204Z,73.70
2019-03-09T00:13:58.289Z,74.60
2019-03-09T00:16:47.735Z,74.80
2019-03-09T00:19:28.928Z,74.80
2019-03-09T00:22:09.313Z,74.00
2019-03-09T00:25:18.987Z,72.70
2019-03-09T00:28:15.063Z,76.60
2019-03-09T00:31:16.382Z,76.10
2019-03-09T00:33:58.949Z,78.10
2019-03-09T00:36:39.817Z,77.50
2019-03-09T00:39:31.173Z,75.00
2019-03-09T00:42:15.072Z,74.60
2019-03-09T00:45:03.345Z,74.80
2019-03-09T00:48:00.744Z,73.70
2019-03-09T00:50:43.229Z,74.90
2019-03-09T00:53:33.688Z,74.80
2019-03-09T00:56:18.878Z,74.10
2019-03-09T00:59:04.418Z,73.30
2019-03-09T01:01:45.793Z,71.60
2019-03-09T01:04:34.987Z,72.20
2019-03-09T01:07:18.040Z,71.80
2019-03-09T01:10:05.935Z,73.20
2019-03-09T01:12:53.392Z,73.60
2019-03-09T01:15:35.350Z,73.60
2019-03-09T01:18:16.547Z,72.40
2019-03-09T01:20:57.269Z,73.50
2019-03-09T01:23:48.709Z,74.20
2019-03-09T01:26:36.300Z,73.70
2019-03-09T01:29:20.753Z,73.50
2019-03-09T01:32:05.458Z,74.30
2019-03-09T01:34:48.438Z,72.70
2019-03-09T01:37:32.903Z,72.50
2019-03-09T01:40:14.916Z,74.20
2019-03-09T01:42:58.953Z,73.60
2019-03-09T01:45:39.221Z,73.10
2019-03-09T01:48:20.549Z,71.10
2019-03-09T01:51:00.955Z,72.10
2019-03-09T01:53:51.747Z,71.30
2019-03-09T01:56:34.476Z,71.10
2019-03-09T01:59:16.619Z,71.80
2019-03-09T02:02:13.940Z,72.60
2019-03-09T02:05:05.791Z,72.80
2019-03-09T02:07:51.706Z,74.00
2019-03-09T02:10:33.495Z,72.80
2019-03-09T02:13:21.221Z,72.00
2019-03-09T02:16:08.456Z,71.00
2019-03-09T02:18:53.309Z,70.30
2019-03-09T02:21:41.575Z,70.10
2019-03-09T02:24:29.222Z,72.00
2019-03-09T02:27:16.883Z,70.70
2019-03-09T02:30:03.994Z,69.80
2019-03-09T02:32:46.490Z,72.00
2019-03-09T02:35:40.376Z,69.90
2019-03-09T02:38:49.172Z,69.90
2019-03-09T02:41:39.509Z,71.00
2019-03-09T02:44:24.363Z,69.00
2019-03-09T02:47:08.444Z,68.30
2019-03-09T02:49:53.151Z,67.90
2019-03-09T02:52:42.025Z,65.90
2019-03-09T02:55:21.475Z,65.80
2019-03-09T02:58:05.283Z,66.30
2019-03-09T03:00:59.703Z,66.80
2019-03-09T03:03:40.325Z,67.10
2019-03-09T03:06:24.651Z,70.30
2019-03-09T03:09:13.124Z,69.40
2019-03-09T03:15:03.707Z,67.20
2019-03-09T03:17:55.707Z,65.60
2019-03-09T03:20:43.610Z,65.60
2019-03-09T03:23:31.115Z,66.40
2019-03-09T03:26:17.871Z,67.70
2019-03-09T03:29:04.839Z,68.20
2019-03-09T03:31:47.734Z,66.90
2019-03-09T03:34:57.105Z,67.10
2019-03-09T03:37:43.985Z,67.20
2019-03-09T03:40:25.948Z,66.30
2019-03-09T03:43:16.812Z,68.40
2019-03-09T03:45:56.746Z,67.10
2019-03-09T03:48:41.825Z,68.00
2019-03-09T03:51:23.385Z,67.10
2019-03-09T03:54:06.648Z,66.40
2019-03-09T03:56:51.107Z,67.40
2019-03-09T03:59:36.023Z,66.40
2019-03-09T04:02:20.349Z,65.90
2019-03-09T04:05:04.160Z,64.40
2019-03-09T04:07:50.141Z,64.10
2019-03-09T04:10:42.638Z,66.20
2019-03-09T04:13:35.679Z,65.00
2019-03-09T04:16:24.656Z,65.70
2019-03-09T04:19:17.844Z,65.30
2019-03-09T04:22:02.781Z,65.50
2019-03-09T04:24:49.860Z,63.40
2019-03-09T04:27:32.967Z,63.50
2019-03-09T04:30:18.308Z,63.00
2019-03-09T04:33:07.769Z,63.30
2019-03-09T04:35:53.190Z,65.80
2019-03-09T04:38:43.717Z,64.80
2019-03-09T04:41:28.287Z,64.00
2019-03-09T04:44:15.940Z,65.80
2019-03-09T04:46:58.076Z,63.60
2019-03-09T04:49:45.274Z,63.50
2019-03-09T04:52:28.287Z,66.00
2019-03-09T04:55:24.000Z,64.50
2019-03-09T04:58:27.983Z,63.10
2019-03-09T05:01:16.010Z,61.20
2019-03-09T05:04:36.661Z,60.50
2019-03-09T05:07:31.831Z,60.70
2019-03-09T05:10:47.924Z,61.20
2019-03-09T05:13:44.200Z,60.10
2019-03-09T05:16:33.706Z,60.90
2019-03-09T05:19:22.207Z,61.30
2019-03-09T05:22:12.184Z,62.10
2019-03-09T05:25:24.816Z,59.70
2019-03-09T05:28:18.486Z,59.50
2019-03-09T05:31:06.580Z,60.30
2019-03-09T05:34:09.829Z,60.00
2019-03-09T05:37:04.814Z,60.80
2019-03-09T05:39:50.634Z,60.80
2019-03-09T05:42:35.902Z,60.90
2019-03-09T05:45:42.480Z,59.60
2019-03-09T05:48:32.267Z,59.90
2019-03-09T05:51:32.008Z,58.70
2019-03-09T05:54:53.186Z,60.00
2019-03-09T05:57:39.249Z,59.80
2019-03-09T06:00:23.540Z,61.10
2019-03-09T06:03:13.522Z,60.80
2019-03-09T06:06:13.253Z,59.00
2019-03-09T06:09:03.087Z,57.50
2019-03-09T06:12:02.096Z,57.70
2019-03-09T06:14:50.142Z,57.00
2019-03-09T06:17:45.854Z,56.90
2019-03-09T06:20:29.859Z,56.90
2019-03-09T06:23:23.448Z,55.60
2019-03-09T06:26:10.986Z,56.00
2019-03-09T06:29:12.173Z,55.40
2019-03-09T06:32:46.784Z,56.70
2019-03-09T06:35:39.103Z,57.40
2019-03-09T06:39:06.004Z,56.20
2019-03-09T06:42:14.262Z,55.10
2019-03-09T06:45:07.809Z,56.80
2019-03-09T06:48:04.621Z,56.00
2019-03-09T06:50:53.753Z,58.40
2019-03-09T06:53:36.525Z,56.60
2019-03-09T06:59:45.515Z,56.20
2019-03-09T07:02:31.864Z,54.70
2019-03-09T07:05:32.946Z,54.70
2019-03-09T07:08:20.489Z,55.10
2019-03-09T07:11:34.053Z,57.00
2019-03-09T07:14:46.915Z,56.00
2019-03-09T07:17:43.108Z,57.10
2019-03-09T07:20:50.294Z,56.40
2019-03-09T07:23:48.470Z,56.10
2019-03-09T07:26:51.571Z,55.30
2019-03-09T07:29:43.126Z,55.10
2019-03-09T07:32:52.387Z,55.60
2019-03-09T07:36:13.126Z,56.10
2019-03-09T07:39:09.463Z,55.10
2019-03-09T07:42:00.722Z,54.40
2019-03-09T07:45:04.114Z,54.40
2019-03-09T07:48:22.894Z,54.70
2019-03-09T07:51:31.895Z,53.60
2019-03-09T07:54:21.898Z,54.10
2019-03-09T07:57:13.206Z,53.00
2019-03-09T08:00:52.233Z,53.40
2019-03-09T08:03:58.716Z,54.00
2019-03-09T08:07:08.352Z,52.70
2019-03-09T08:09:57.543Z,52.40
2019-03-09T08:12:54.077Z,53.00
2019-03-09T08:16:06.801Z,53.50
2019-03-09T08:19:02.539Z,53.80
2019-03-09T08:22:20.123Z,53.50
2019-03-09T08:25:23.017Z,53.60
2019-03-09T08:28:10.851Z,53.80
2019-03-09T08:31:17.418Z,54.10
2019-03-09T08:34:15.047Z,54.70
2019-03-09T08:37:42.182Z,54.20
2019-03-09T08:40:30.473Z,54.60
2019-03-09T08:43:35.240Z,55.80
2019-03-09T08:46:40.473Z,55.10
2019-03-09T08:49:36.793Z,54.90
2019-03-09T08:52:48.347Z,53.50
2019-03-09T08:55:40.235Z,54.00
2019-03-09T08:58:32.354Z,52.60
2019-03-09T09:01:21.976Z,53.70
2019-03-09T09:04:16.416Z,55.40
2019-03-09T09:07:02.273Z,54.30
2019-03-09T09:09:47.348Z,54.10
2019-03-09T09:12:35.850Z,55.20
2019-03-09T09:15:19.553Z,54.70
2019-03-09T09:18:14.545Z,54.90
2019-03-09T09:20:59.433Z,53.40
2019-03-09T09:24:00.755Z,54.10
2019-03-09T09:26:48.113Z,53.60
2019-03-09T09:29:34.890Z,53.50
2019-03-09T09:32:15.213Z,52.80
2019-03-09T09:35:01.587Z,51.80
2019-03-09T09:37:50.376Z,52.20
2019-03-09T09:40:37.904Z,52.60
2019-03-09T09:43:28.291Z,53.10
2019-03-09T09:46:15.265Z,53.10
2019-03-09T09:49:27.066Z,53.30
2019-03-09T09:58:48.616Z,54.10
2019-03-09T10:01:38.845Z,53.50
2019-03-09T10:04:27.682Z,54.40
2019-03-09T10:07:10.222Z,53.40
2019-03-09T10:09:53.717Z,53.90
2019-03-09T10:12:37.388Z,53.90
2019-03-09T10:15:26.458Z,53.40
2019-03-09T10:18:06.571Z,53.90
2019-03-09T10:20:50.052Z,53.50
2019-03-09T10:23:39.593Z,54.70
2019-03-09T10:26:33.266Z,54.80
2019-03-09T10:29:19.224Z,54.40
2019-03-09T10:32:08.882Z,54.60
2019-03-09T10:34:52.455Z,54.40
2019-03-09T10:37:39.058Z,54.80
2019-03-09T10:40:18.593Z,53.40
2019-03-09T10:43:11.733Z,53.40
2019-03-09T10:45:54.667Z,51.80
2019-03-09T10:51:46.842Z,53.20
2019-03-09T10:54:37.629Z,52.60
2019-03-09T10:57:17.794Z,53.00
2019-03-09T11:00:01.228Z,52.90
2019-03-09T11:02:57.845Z,52.60
2019-03-09T11:06:01.841Z,52.50
2019-03-09T11:08:47.957Z,52.50
2019-03-09T11:11:32.859Z,54.50
2019-03-09T11:14:15.395Z,54.50
2019-03-09T11:16:59.292Z,54.50
2019-03-09T11:19:46.705Z,54.80
2019-03-09T11:22:39.974Z,55.40
2019-03-09T11:25:40.235Z,55.20
2019-03-09T11:28:24.177Z,55.00
2019-03-09T11:31:09.570Z,55.00
2019-03-09T11:33:58.822Z,55.20
2019-03-09T11:36:50.094Z,55.80
2019-03-09T11:39:35.604Z,56.80
2019-03-09T11:42:26.376Z,57.00
2019-03-09T11:45:17.410Z,57.30
2019-03-09T11:47:59.911Z,57.50
2019-03-09T11:50:46.789Z,57.00
2019-03-09T11:53:36.476Z,56.50
2019-03-09T11:56:31.760Z,56.30
2019-03-09T11:59:21.178Z,56.20
2019-03-09T12:02:07.847Z,56.40
2019-03-09T12:04:59.117Z,56.10
2019-03-09T12:07:42.070Z,55.90
2019-03-09T12:10:25.654Z,56.20
2019-03-09T12:13:19.851Z,56.30
2019-03-09T12:16:25.688Z,56.00
2019-03-09T12:22:29.741Z,56.40
2019-03-09T12:25:35.161Z,56.50
2019-03-09T12:28:29.896Z,56.90
2019-03-09T12:31:19.094Z,57.10
2019-03-09T12:34:18.283Z,57.70
2019-03-09T12:37:06.940Z,57.90
2019-03-09T12:39:56.444Z,57.80
2019-03-09T12:42:47.867Z,58.00
2019-03-09T12:45:47.933Z,58.10
2019-03-09T12:48:52.584Z,57.90
2019-03-09T12:51:56.970Z,58.20
2019-03-09T12:54:45.863Z,58.50
2019-03-09T12:57:32.998Z,58.80
2019-03-09T13:00:30.042Z,59.20
2019-03-09T13:03:32.286Z,59.20
2019-03-09T13:06:20.269Z,59.30
2019-03-09T13:09:08.581Z,59.70
2019-03-09T13:12:01.512Z,59.80
2019-03-09T13:15:04.828Z,60.10
2019-03-09T13:17:52.841Z,59.90
2019-03-09T13:20:39.450Z,60.10
2019-03-09T13:23:32.236Z,60.10
2019-03-09T13:26:22.065Z,60.00
2019-03-09T13:29:34.915Z,59.80
2019-03-09T13:32:24.811Z,59.90
2019-03-09T13:35:17.443Z,60.30
2019-03-09T13:38:05.770Z,60.80
2019-03-09T13:40:55.773Z,61.10
2019-03-09T13:43:43.397Z,60.80
2019-03-09T13:46:44.105Z,61.20
2019-03-09T13:49:38.890Z,61.20
2019-03-09T14:02:33.288Z,61.20
2019-03-09T14:05:31.827Z,61.30
2019-03-09T14:08:32.838Z,60.40
2019-03-09T14:11:22.703Z,60.10
2019-03-09T14:14:27.776Z,60.40
2019-03-09T14:17:15.836Z,60.30
2019-03-09T14:23:10.179Z,61.10
2019-03-09T14:26:02.473Z,61.60
2019-03-09T14:28:54.122Z,62.30
2019-03-09T14:31:54.460Z,62.20
2019-03-09T14:35:03.061Z,62.40
2019-03-09T14:37:48.417Z,62.50
2019-03-09T14:40:49.165Z,62.50
2019-03-09T14:43:46.418Z,62.60
2019-03-09T14:46:48.907Z,62.50
2019-03-09T14:50:14.566Z,62.20
2019-03-09T14:53:17.268Z,61.80
2019-03-09T14:56:53.633Z,62.00
2019-03-09T15:00:28.836Z,62.30
2019-03-09T15:03:50.495Z,62.70
2019-03-09T15:10:34.548Z,62.80
2019-03-09T15:13:39.920Z,63.00
2019-03-09T15:16:55.582Z,63.30
2019-03-09T15:20:20.611Z,63.40
2019-03-09T15:27:45.688Z,63.80
2019-03-09T15:34:39.882Z,62.80
2019-03-09T15:38:09.049Z,63.20
2019-03-09T15:41:46.879Z,63.70
2019-03-09T15:45:05.260Z,64.10
2019-03-09T15:48:19.453Z,64.20
2019-03-09T15:51:35.357Z,64.20
2019-03-09T15:55:17.313Z,64.20
2019-03-09T15:58:51.589Z,64.30
2019-03-09T16:02:24.896Z,65.10
2019-03-09T16:06:04.273Z,65.10
2019-03-09T16:09:18.968Z,64.80
2019-03-09T16:12:40.407Z,64.90
2019-03-09T16:15:58.292Z,64.50
2019-03-09T16:20:04.331Z,64.40
2019-03-09T16:23:23.560Z,63.20
2019-03-09T16:26:46.033Z,63.30
2019-03-09T16:34:12.247Z,63.30
2019-03-09T16:37:18.617Z,63.60
2019-03-09T16:40:40.487Z,62.60
2019-03-09T16:50:36.687Z,62.80
2019-03-09T16:54:00.911Z,62.90
2019-03-09T16:57:05.457Z,62.70
2019-03-09T17:00:07.369Z,62.40
2019-03-09T17:03:23.826Z,62.10
2019-03-09T17:06:53.869Z,62.70
2019-03-09T17:09:48.229Z,62.90
2019-03-09T17:12:39.331Z,63.30
2019-03-09T17:15:43.072Z,62.90
2019-03-09T17:18:33.143Z,63.20
2019-03-09T17:22:04.116Z,63.50
2019-03-09T17:24:54.943Z,63.60
2019-03-09T17:27:56.088Z,63.80
2019-03-09T17:30:59.517Z,63.80
2019-03-09T17:33:54.465Z,64.10
2019-03-09T17:36:46.338Z,64.00
2019-03-09T17:39:46.300Z,64.20
2019-03-09T17:42:29.427Z,64.40
2019-03-09T17:57:44.395Z,63.90
2019-03-09T18:03:39.934Z,64.40
2019-03-09T18:06:27.313Z,64.50
2019-03-09T18:09:13.397Z,64.50
2019-03-09T18:11:53.408Z,64.20
2019-03-09T18:14:33.380Z,64.90
2019-03-09T18:17:14.659Z,64.90
2019-03-09T18:19:54.753Z,64.90
2019-03-09T18:22:36.610Z,64.90
2019-03-09T18:25:20.462Z,64.80
2019-03-09T18:28:12.972Z,64.90
2019-03-09T18:31:03.389Z,64.70
2019-03-09T18:33:52.696Z,65.20
2019-03-09T18:36:40.180Z,64.80
2019-03-09T18:39:25.922Z,64.20
2019-03-09T18:42:11.618Z,64.40
2019-03-09T18:44:55.638Z,64.90
2019-03-09T18:47:37.646Z,65.10
2019-03-09T18:50:24.193Z,65.40
2019-03-09T18:53:08.064Z,65.30
2019-03-09T18:55:58.875Z,65.50
2019-03-09T18:58:33.180Z,65.40
2019-03-09T19:01:16.469Z,65.70
2019-03-09T19:04:01.425Z,65.70
2019-03-09T19:06:45.512Z,65.60
2019-03-09T19:09:27.930Z,66.00
2019-03-09T19:12:08.309Z,66.20
2019-03-09T19:14:55.607Z,66.10
2019-03-09T19:17:37.361Z,66.10
2019-03-09T19:20:18.817Z,65.90
2019-03-09T19:23:02.217Z,65.70
2019-03-09T19:25:43.220Z,65.60
2019-03-09T19:28:23.275Z,65.30
2019-03-09T19:31:02.663Z,65.60
2019-03-09T19:33:44.340Z,65.80
2019-03-09T19:36:27.547Z,65.70
2019-03-09T19:39:09.025Z,65.90
2019-03-09T19:41:49.784Z,65.90
2019-03-09T19:44:31.004Z,66.30
2019-03-09T19:47:13.927Z,66.30
2019-03-09T19:49:56.174Z,66.20
2019-03-09T19:52:41.227Z,66.30
2019-03-09T19:55:21.257Z,66.40
2019-03-09T19:58:02.211Z,66.50
2019-03-09T20:00:45.347Z,66.60
2019-03-09T20:03:25.569Z,66.50
2019-03-09T20:06:07.017Z,67.00
2019-03-09T20:08:48.754Z,67.00
2019-03-09T20:11:36.275Z,67.00
2019-03-09T20:14:16.893Z,66.90
2019-03-09T20:17:02.086Z,66.40
2019-03-09T20:19:44.233Z,66.10
2019-03-09T20:22:27.396Z,66.60
2019-03-09T20:25:10.944Z,66.70
2019-03-09T20:27:53.157Z,66.90
2019-03-09T20:30:32.923Z,67.00
2019-03-09T20:33:26.810Z,67.10
2019-03-09T20:36:12.685Z,67.40
2019-03-09T20:38:53.406Z,67.70
2019-03-09T20:41:35.344Z,67.40
2019-03-09T20:44:18.145Z,67.60
2019-03-09T20:46:58.254Z,68.10
2019-03-09T20:49:41.579Z,68.10
2019-03-09T20:52:24.434Z,67.90
2019-03-09T20:55:06.494Z,68.10
2019-03-09T20:57:48.918Z,68.20
2019-03-09T21:00:28.273Z,68.20
2019-03-09T21:03:10.516Z,67.90
2019-03-09T21:05:54.485Z,67.70
2019-03-09T21:08:36.114Z,67.70
2019-03-09T21:11:20.132Z,67.50
2019-03-09T21:14:14.613Z,68.00
2019-03-09T21:17:01.579Z,68.10
2019-03-09T21:19:46.312Z,68.00
2019-03-09T21:22:28.679Z,68.30
2019-03-09T21:25:13.486Z,68.50
2019-03-09T21:28:01.430Z,68.60
2019-03-09T21:34:04.212Z,68.90
2019-03-09T21:36:50.072Z,69.20
2019-03-09T21:39:29.945Z,69.00
2019-03-09T21:42:14.772Z,69.30
2019-03-09T21:44:59.053Z,69.30
2019-03-09T21:47:50.611Z,69.30
2019-03-09T21:50:30.532Z,69.60
2019-03-09T21:53:12.802Z,69.70
2019-03-09T21:55:55.448Z,70.00
2019-03-09T21:58:40.591Z,69.70
2019-03-09T22:01:23.074Z,69.70
2019-03-09T22:04:09.835Z,69.80
2019-03-09T22:06:49.710Z,69.90
2019-03-09T22:09:31.608Z,70.00
2019-03-09T22:12:19.200Z,70.00
2019-03-09T22:15:03.816Z,70.00
2019-03-09T22:17:57.230Z,70.10
2019-03-09T22:20:36.912Z,70.30
2019-03-09T22:23:23.685Z,70.40
2019-03-09T22:26:06.090Z,70.40
2019-03-09T22:28:48.937Z,70.40
2019-03-09T22:31:32.219Z,70.40
2019-03-09T22:34:20.630Z,70.60
2019-03-09T22:37:03.735Z,70.90
2019-03-09T22:39:51.318Z,70.90
2019-03-09T22:42:38.011Z,70.90
2019-03-09T22:45:20.505Z,70.90
2019-03-09T22:48:04.531Z,71.10
2019-03-09T22:50:42.992Z,70.90
2019-03-09T22:53:33.514Z,70.90
2019-03-09T22:56:19.407Z,70.90
2019-03-09T22:59:06.553Z,70.70
2019-03-09T23:01:51.152Z,70.90
2019-03-09T23:04:28.695Z,71.00
2019-03-09T23:07:19.785Z,71.10
2019-03-09T23:10:00.150Z,71.00
2019-03-09T23:12:43.224Z,71.20
2019-03-09T23:15:29.306Z,71.10
2019-03-09T23:21:22.593Z,71.20
2019-03-09T23:24:19.738Z,70.90
2019-03-09T23:27:06.600Z,71.60
2019-03-09T23:29:47.827Z,71.60
2019-03-09T23:32:35.588Z,72.20
2019-03-09T23:35:31.982Z,71.50
2019-03-09T23:38:26.675Z,71.80
2019-03-09T23:41:11.012Z,71.30
2019-03-09T23:44:02.409Z,72.60
2019-03-09T23:46:51.388Z,71.80
2019-03-09T23:49:36.897Z,71.10
2019-03-09T23:52:26.153Z,72.60
2019-03-09T23:55:06.801Z,71.70
2019-03-09T23:57:49.941Z,72.00
